sensor_id;sensor_type;location;lat;lon;timestamp;temperature;humidity
68177;DHT22;56478;50.982;7.032;2022-12-26T00:01:11;12.51;83.59
68177;DHT22;56478;50.982;7.032;2022-12-26T00:03:37;12.46;84.37
68177;DHT22;56478;50.982;7.032;2022-12-26T00:06:03;12.43;83.00
68177;DHT22;56478;50.982;7.032;2022-12-26T00:08:29;12.37;83.35
68177;DHT22;56478;50.982;7.032;2022-12-26T00:10:54;12.32;84.56
68177;DHT22;56478;50.982;7.032;2022-12-26T00:13:20;12.42;82.55
68177;DHT22;56478;50.982;7.032;2022-12-26T00:15:45;12.46;82.62
68177;DHT22;56478;50.982;7.032;2022-12-26T00:18:11;12.39;82.94
68177;DHT22;56478;50.982;7.032;2022-12-26T00:20:36;12.32;83.48
68177;DHT22;56478;50.982;7.032;2022-12-26T00:23:02;12.33;83.05
68177;DHT22;56478;50.982;7.032;2022-12-26T00:25:27;12.39;82.71
68177;DHT22;56478;50.982;7.032;2022-12-26T00:27:54;12.32;82.95
68177;DHT22;56478;50.982;7.032;2022-12-26T00:30:19;12.28;83.04
68177;DHT22;56478;50.982;7.032;2022-12-26T00:32:45;12.30;83.05
68177;DHT22;56478;50.982;7.032;2022-12-26T00:35:10;12.33;82.87
68177;DHT22;56478;50.982;7.032;2022-12-26T00:37:36;12.39;83.13
68177;DHT22;56478;50.982;7.032;2022-12-26T00:40:01;12.33;83.47
68177;DHT22;56478;50.982;7.032;2022-12-26T00:42:27;12.37;82.99
68177;DHT22;56478;50.982;7.032;2022-12-26T00:44:53;12.46;82.94
68177;DHT22;56478;50.982;7.032;2022-12-26T00:47:19;12.46;83.28
68177;DHT22;56478;50.982;7.032;2022-12-26T00:49:44;12.42;82.83
68177;DHT22;56478;50.982;7.032;2022-12-26T00:52:10;12.37;83.09
68177;DHT22;56478;50.982;7.032;2022-12-26T00:54:35;12.32;84.03
68177;DHT22;56478;50.982;7.032;2022-12-26T00:57:01;12.30;82.85
68177;DHT22;56478;50.982;7.032;2022-12-26T00:59:26;12.32;83.51
68177;DHT22;56478;50.982;7.032;2022-12-26T01:01:52;12.36;82.85
68177;DHT22;56478;50.982;7.032;2022-12-26T01:04:17;12.32;83.58
68177;DHT22;56478;50.982;7.032;2022-12-26T01:06:43;12.28;83.52
68177;DHT22;56478;50.982;7.032;2022-12-26T01:09:08;12.26;83.40
68177;DHT22;56478;50.982;7.032;2022-12-26T01:11:36;12.29;83.31
68177;DHT22;56478;50.982;7.032;2022-12-26T01:14:07;12.32;83.00
68177;DHT22;56478;50.982;7.032;2022-12-26T01:16:33;12.33;82.85
68177;DHT22;56478;50.982;7.032;2022-12-26T01:18:58;12.34;83.33
68177;DHT22;56478;50.982;7.032;2022-12-26T01:21:24;12.40;83.04
68177;DHT22;56478;50.982;7.032;2022-12-26T01:23:49;12.40;82.83
68177;DHT22;56478;50.982;7.032;2022-12-26T01:26:14;12.39;83.07
68177;DHT22;56478;50.982;7.032;2022-12-26T01:28:40;12.46;82.60
68177;DHT22;56478;50.982;7.032;2022-12-26T01:31:05;12.43;82.67
68177;DHT22;56478;50.982;7.032;2022-12-26T01:33:32;12.43;82.55
68177;DHT22;56478;50.982;7.032;2022-12-26T01:35:57;12.46;83.25
68177;DHT22;56478;50.982;7.032;2022-12-26T01:38:24;12.57;81.29
68177;DHT22;56478;50.982;7.032;2022-12-26T01:40:49;12.58;81.59
68177;DHT22;56478;50.982;7.032;2022-12-26T01:44:05;12.61;81.37
68177;DHT22;56478;50.982;7.032;2022-12-26T01:46:37;12.64;81.16
68177;DHT22;56478;50.982;7.032;2022-12-26T01:49:18;12.67;80.90
68177;DHT22;56478;50.982;7.032;2022-12-26T01:51:48;12.65;81.37
68177;DHT22;56478;50.982;7.032;2022-12-26T01:54:15;12.68;81.03
68177;DHT22;56478;50.982;7.032;2022-12-26T01:56:45;12.67;81.45
68177;DHT22;56478;50.982;7.032;2022-12-26T01:59:22;12.68;81.55
68177;DHT22;56478;50.982;7.032;2022-12-26T02:01:50;12.64;81.77
68177;DHT22;56478;50.982;7.032;2022-12-26T02:04:21;12.61;81.97
68177;DHT22;56478;50.982;7.032;2022-12-26T02:07:07;12.64;81.03
68177;DHT22;56478;50.982;7.032;2022-12-26T02:09:33;12.60;81.88
68177;DHT22;56478;50.982;7.032;2022-12-26T02:12:20;12.71;81.03
68177;DHT22;56478;50.982;7.032;2022-12-26T02:14:48;12.61;81.29
68177;DHT22;56478;50.982;7.032;2022-12-26T02:17:14;12.57;82.30
68177;DHT22;56478;50.982;7.032;2022-12-26T02:19:57;12.51;82.04
68177;DHT22;56478;50.982;7.032;2022-12-26T02:31:45;12.61;80.76
68177;DHT22;56478;50.982;7.032;2022-12-26T02:42:03;12.67;80.69
68177;DHT22;56478;50.982;7.032;2022-12-26T02:44:46;12.60;81.03
68177;DHT22;56478;50.982;7.032;2022-12-26T02:47:56;12.61;80.94
68177;DHT22;56478;50.982;7.032;2022-12-26T02:50:35;12.65;79.93
68177;DHT22;56478;50.982;7.032;2022-12-26T02:53:28;12.68;80.15
68177;DHT22;56478;50.982;7.032;2022-12-26T02:56:21;12.71;79.88
68177;DHT22;56478;50.982;7.032;2022-12-26T03:02:35;12.68;79.61
68177;DHT22;56478;50.982;7.032;2022-12-26T03:05:27;12.67;79.91
68177;DHT22;56478;50.982;7.032;2022-12-26T03:08:17;12.67;80.12
68177;DHT22;56478;50.982;7.032;2022-12-26T03:11:02;12.63;80.46
68177;DHT22;56478;50.982;7.032;2022-12-26T03:13:47;12.64;80.61
68177;DHT22;56478;50.982;7.032;2022-12-26T03:16:15;12.61;81.02
68177;DHT22;56478;50.982;7.032;2022-12-26T03:19:03;12.60;81.02
68177;DHT22;56478;50.982;7.032;2022-12-26T03:21:34;12.60;80.91
68177;DHT22;56478;50.982;7.032;2022-12-26T03:24:00;12.56;81.85
68177;DHT22;56478;50.982;7.032;2022-12-26T03:26:30;12.51;81.70
68177;DHT22;56478;50.982;7.032;2022-12-26T03:29:14;12.53;81.64
68177;DHT22;56478;50.982;7.032;2022-12-26T03:32:00;12.56;81.20
68177;DHT22;56478;50.982;7.032;2022-12-26T03:34:27;12.50;82.10
68177;DHT22;56478;50.982;7.032;2022-12-26T03:39:49;12.44;82.17
68177;DHT22;56478;50.982;7.032;2022-12-26T03:49:08;12.42;82.69
68177;DHT22;56478;50.982;7.032;2022-12-26T03:58:31;12.39;83.60
68177;DHT22;56478;50.982;7.032;2022-12-26T04:01:19;12.32;83.81
68177;DHT22;56478;50.982;7.032;2022-12-26T04:04:06;12.40;83.92
68177;DHT22;56478;50.982;7.032;2022-12-26T04:06:57;12.36;84.21
68177;DHT22;56478;50.982;7.032;2022-12-26T04:09:46;12.33;84.45
68177;DHT22;56478;50.982;7.032;2022-12-26T04:12:32;12.30;84.68
68177;DHT22;56478;50.982;7.032;2022-12-26T04:15:23;12.22;85.25
68177;DHT22;56478;50.982;7.032;2022-12-26T04:18:12;12.22;85.52
68177;DHT22;56478;50.982;7.032;2022-12-26T04:23:39;12.08;86.40
68177;DHT22;56478;50.982;7.032;2022-12-26T04:26:33;12.01;86.47
68177;DHT22;56478;50.982;7.032;2022-12-26T04:29:19;12.04;86.25
68177;DHT22;56478;50.982;7.032;2022-12-26T04:34:54;12.06;86.36
68177;DHT22;56478;50.982;7.032;2022-12-26T04:37:42;12.12;85.98
68177;DHT22;56478;50.982;7.032;2022-12-26T04:40:33;12.12;86.29
68177;DHT22;56478;50.982;7.032;2022-12-26T04:43:19;12.05;86.32
68177;DHT22;56478;50.982;7.032;2022-12-26T04:46:04;12.01;86.67
68177;DHT22;56478;50.982;7.032;2022-12-26T04:48:30;11.98;86.70
68177;DHT22;56478;50.982;7.032;2022-12-26T04:51:15;11.99;86.52
68177;DHT22;56478;50.982;7.032;2022-12-26T04:53:40;11.98;86.52
68177;DHT22;56478;50.982;7.032;2022-12-26T04:56:07;11.89;87.24
68177;DHT22;56478;50.982;7.032;2022-12-26T04:58:33;11.91;86.84
68177;DHT22;56478;50.982;7.032;2022-12-26T05:00:59;11.98;86.86
68177;DHT22;56478;50.982;7.032;2022-12-26T05:03:43;11.97;87.06
68177;DHT22;56478;50.982;7.032;2022-12-26T05:06:27;11.97;86.93
68177;DHT22;56478;50.982;7.032;2022-12-26T05:09:13;11.94;87.37
68177;DHT22;56478;50.982;7.032;2022-12-26T05:11:58;11.88;87.68
68177;DHT22;56478;50.982;7.032;2022-12-26T05:14:24;11.89;88.03
68177;DHT22;56478;50.982;7.032;2022-12-26T05:16:49;11.91;88.12
68177;DHT22;56478;50.982;7.032;2022-12-26T05:19:33;11.95;87.39
68177;DHT22;56478;50.982;7.032;2022-12-26T05:22:17;11.92;88.05
68177;DHT22;56478;50.982;7.032;2022-12-26T05:25:02;11.92;88.17
68177;DHT22;56478;50.982;7.032;2022-12-26T05:27:46;11.77;88.61
68177;DHT22;56478;50.982;7.032;2022-12-26T05:30:30;11.67;89.36
68177;DHT22;56478;50.982;7.032;2022-12-26T05:32:55;11.77;88.23
68177;DHT22;56478;50.982;7.032;2022-12-26T05:35:39;11.69;89.49
68177;DHT22;56478;50.982;7.032;2022-12-26T05:38:05;11.66;89.92
68177;DHT22;56478;50.982;7.032;2022-12-26T05:40:31;11.56;90.11
68177;DHT22;56478;50.982;7.032;2022-12-26T05:42:56;11.56;90.17
68177;DHT22;56478;50.982;7.032;2022-12-26T05:45:22;11.53;90.43
68177;DHT22;56478;50.982;7.032;2022-12-26T05:47:48;11.63;89.94
68177;DHT22;56478;50.982;7.032;2022-12-26T05:50:13;11.49;90.50
68177;DHT22;56478;50.982;7.032;2022-12-26T05:52:39;11.53;90.79
68177;DHT22;56478;50.982;7.032;2022-12-26T05:55:05;11.43;90.81
68177;DHT22;56478;50.982;7.032;2022-12-26T05:57:30;11.43;90.44
68177;DHT22;56478;50.982;7.032;2022-12-26T05:59:56;11.36;91.09
68177;DHT22;56478;50.982;7.032;2022-12-26T06:02:22;11.28;90.75
68177;DHT22;56478;50.982;7.032;2022-12-26T06:04:47;11.23;90.08
68177;DHT22;56478;50.982;7.032;2022-12-26T06:07:13;11.20;90.33
68177;DHT22;56478;50.982;7.032;2022-12-26T06:09:38;11.23;90.26
68177;DHT22;56478;50.982;7.032;2022-12-26T06:12:04;11.22;89.93
68177;DHT22;56478;50.982;7.032;2022-12-26T06:14:29;11.14;90.67
68177;DHT22;56478;50.982;7.032;2022-12-26T06:16:55;11.15;90.59
68177;DHT22;56478;50.982;7.032;2022-12-26T06:19:21;11.14;91.25
68177;DHT22;56478;50.982;7.032;2022-12-26T06:21:46;11.12;91.04
68177;DHT22;56478;50.982;7.032;2022-12-26T06:24:12;11.15;90.92
68177;DHT22;56478;50.982;7.032;2022-12-26T06:26:38;11.08;91.13
68177;DHT22;56478;50.982;7.032;2022-12-26T06:29:05;11.09;90.73
68177;DHT22;56478;50.982;7.032;2022-12-26T06:31:30;11.05;90.58
68177;DHT22;56478;50.982;7.032;2022-12-26T06:33:57;11.09;90.92
68177;DHT22;56478;50.982;7.032;2022-12-26T06:36:24;11.09;91.03
68177;DHT22;56478;50.982;7.032;2022-12-26T06:38:51;11.15;90.82
68177;DHT22;56478;50.982;7.032;2022-12-26T06:41:19;11.11;90.98
68177;DHT22;56478;50.982;7.032;2022-12-26T06:43:45;11.07;90.99
68177;DHT22;56478;50.982;7.032;2022-12-26T06:46:14;11.07;90.47
68177;DHT22;56478;50.982;7.032;2022-12-26T06:48:40;11.11;90.81
68177;DHT22;56478;50.982;7.032;2022-12-26T06:51:08;11.04;91.10
68177;DHT22;56478;50.982;7.032;2022-12-26T06:53:35;11.08;91.52
68177;DHT22;56478;50.982;7.032;2022-12-26T06:56:21;11.08;91.72
68177;DHT22;56478;50.982;7.032;2022-12-26T06:58:57;11.12;91.85
68177;DHT22;56478;50.982;7.032;2022-12-26T07:01:24;11.07;91.47
68177;DHT22;56478;50.982;7.032;2022-12-26T07:03:51;11.07;91.74
68177;DHT22;56478;50.982;7.032;2022-12-26T07:06:20;11.07;91.86
68177;DHT22;56478;50.982;7.032;2022-12-26T07:08:46;11.04;91.66
68177;DHT22;56478;50.982;7.032;2022-12-26T07:11:17;11.07;92.09
68177;DHT22;56478;50.982;7.032;2022-12-26T07:13:43;11.08;92.10
68177;DHT22;56478;50.982;7.032;2022-12-26T07:16:09;11.09;91.98
68177;DHT22;56478;50.982;7.032;2022-12-26T07:18:35;11.04;92.22
68177;DHT22;56478;50.982;7.032;2022-12-26T07:21:12;11.07;92.04
68177;DHT22;56478;50.982;7.032;2022-12-26T07:23:38;11.02;92.26
68177;DHT22;56478;50.982;7.032;2022-12-26T07:26:04;11.07;92.25
68177;DHT22;56478;50.982;7.032;2022-12-26T07:28:30;11.05;92.05
68177;DHT22;56478;50.982;7.032;2022-12-26T07:30:56;11.07;91.94
68177;DHT22;56478;50.982;7.032;2022-12-26T07:33:22;11.12;91.85
68177;DHT22;56478;50.982;7.032;2022-12-26T07:35:47;11.12;91.74
68177;DHT22;56478;50.982;7.032;2022-12-26T07:38:13;11.08;90.79
68177;DHT22;56478;50.982;7.032;2022-12-26T07:40:39;11.11;91.40
68177;DHT22;56478;50.982;7.032;2022-12-26T07:43:05;11.09;91.48
68177;DHT22;56478;50.982;7.032;2022-12-26T07:45:30;11.15;90.91
68177;DHT22;56478;50.982;7.032;2022-12-26T07:47:56;11.09;90.70
68177;DHT22;56478;50.982;7.032;2022-12-26T07:50:23;11.09;90.95
68177;DHT22;56478;50.982;7.032;2022-12-26T07:52:49;11.08;90.48
68177;DHT22;56478;50.982;7.032;2022-12-26T07:55:15;11.05;90.36
68177;DHT22;56478;50.982;7.032;2022-12-26T07:57:40;10.98;90.05
68177;DHT22;56478;50.982;7.032;2022-12-26T08:00:06;11.00;90.42
68177;DHT22;56478;50.982;7.032;2022-12-26T08:02:32;10.95;90.61
68177;DHT22;56478;50.982;7.032;2022-12-26T08:04:58;10.98;91.18
68177;DHT22;56478;50.982;7.032;2022-12-26T08:07:23;11.00;91.20
68177;DHT22;56478;50.982;7.032;2022-12-26T08:09:49;11.02;91.16
68177;DHT22;56478;50.982;7.032;2022-12-26T08:12:14;11.01;91.04
68177;DHT22;56478;50.982;7.032;2022-12-26T08:14:40;11.00;90.85
68177;DHT22;56478;50.982;7.032;2022-12-26T08:17:06;10.97;90.95
68177;DHT22;56478;50.982;7.032;2022-12-26T08:19:32;10.98;91.07
68177;DHT22;56478;50.982;7.032;2022-12-26T08:21:57;11.01;91.04
68177;DHT22;56478;50.982;7.032;2022-12-26T08:24:23;11.07;90.28
68177;DHT22;56478;50.982;7.032;2022-12-26T08:26:48;11.08;90.48
68177;DHT22;56478;50.982;7.032;2022-12-26T08:29:14;11.01;90.60
68177;DHT22;56478;50.982;7.032;2022-12-26T08:31:40;11.01;90.55
68177;DHT22;56478;50.982;7.032;2022-12-26T08:34:06;11.02;90.35
68177;DHT22;56478;50.982;7.032;2022-12-26T08:36:31;11.11;89.95
68177;DHT22;56478;50.982;7.032;2022-12-26T08:38:57;11.16;89.12
68177;DHT22;56478;50.982;7.032;2022-12-26T08:41:23;11.15;89.86
68177;DHT22;56478;50.982;7.032;2022-12-26T08:43:49;11.14;90.14
68177;DHT22;56478;50.982;7.032;2022-12-26T08:46:16;11.11;90.33
68177;DHT22;56478;50.982;7.032;2022-12-26T08:48:43;11.09;90.40
68177;DHT22;56478;50.982;7.032;2022-12-26T08:51:12;11.05;90.40
68177;DHT22;56478;50.982;7.032;2022-12-26T08:53:38;11.09;90.75
68177;DHT22;56478;50.982;7.032;2022-12-26T08:56:06;11.07;90.36
68177;DHT22;56478;50.982;7.032;2022-12-26T08:58:32;11.14;90.73
68177;DHT22;56478;50.982;7.032;2022-12-26T09:01:15;11.16;90.41
68177;DHT22;56478;50.982;7.032;2022-12-26T09:03:41;11.30;90.22
68177;DHT22;56478;50.982;7.032;2022-12-26T09:06:07;11.43;90.53
68177;DHT22;56478;50.982;7.032;2022-12-26T09:08:34;11.49;90.83
68177;DHT22;56478;50.982;7.032;2022-12-26T09:11:02;11.47;88.93
68177;DHT22;56478;50.982;7.032;2022-12-26T09:13:28;11.57;89.61
68177;DHT22;56478;50.982;7.032;2022-12-26T09:15:53;11.62;90.03
68177;DHT22;56478;50.982;7.032;2022-12-26T09:18:19;11.64;89.93
68177;DHT22;56478;50.982;7.032;2022-12-26T09:20:44;11.57;89.17
68177;DHT22;56478;50.982;7.032;2022-12-26T09:23:10;11.67;89.43
68177;DHT22;56478;50.982;7.032;2022-12-26T09:25:36;11.71;89.44
68177;DHT22;56478;50.982;7.032;2022-12-26T09:28:01;11.70;86.51
68177;DHT22;56478;50.982;7.032;2022-12-26T09:30:27;11.75;88.25
68177;DHT22;56478;50.982;7.032;2022-12-26T09:32:52;11.71;87.41
68177;DHT22;56478;50.982;7.032;2022-12-26T09:35:18;11.75;88.98
68177;DHT22;56478;50.982;7.032;2022-12-26T09:37:44;11.69;85.97
68177;DHT22;56478;50.982;7.032;2022-12-26T09:40:20;11.73;86.94
68177;DHT22;56478;50.982;7.032;2022-12-26T09:42:58;11.74;84.78
68177;DHT22;56478;50.982;7.032;2022-12-26T09:45:47;11.84;85.46
68177;DHT22;56478;50.982;7.032;2022-12-26T09:48:30;11.87;86.93
68177;DHT22;56478;50.982;7.032;2022-12-26T09:50:57;11.84;85.36
68177;DHT22;56478;50.982;7.032;2022-12-26T09:58:51;11.94;85.47
68177;DHT22;56478;50.982;7.032;2022-12-26T10:01:23;11.94;83.48
68177;DHT22;56478;50.982;7.032;2022-12-26T10:03:55;12.02;83.77
68177;DHT22;56478;50.982;7.032;2022-12-26T10:06:46;11.92;83.93
68177;DHT22;56478;50.982;7.032;2022-12-26T10:12:16;12.02;83.77
68177;DHT22;56478;50.982;7.032;2022-12-26T10:17:36;12.42;83.14
68177;DHT22;56478;50.982;7.032;2022-12-26T10:25:47;12.47;80.16
68177;DHT22;56478;50.982;7.032;2022-12-26T10:31:36;12.43;81.75
68177;DHT22;56478;50.982;7.032;2022-12-26T10:34:28;12.44;80.71
68177;DHT22;56478;50.982;7.032;2022-12-26T10:37:06;12.36;82.31
68177;DHT22;56478;50.982;7.032;2022-12-26T10:39:36;12.42;80.36
68177;DHT22;56478;50.982;7.032;2022-12-26T10:44:49;12.26;78.87
68177;DHT22;56478;50.982;7.032;2022-12-26T10:47:36;12.26;79.30
68177;DHT22;56478;50.982;7.032;2022-12-26T10:50:03;12.23;78.96
68177;DHT22;56478;50.982;7.032;2022-12-26T10:52:36;12.14;80.62
68177;DHT22;56478;50.982;7.032;2022-12-26T10:55:03;12.05;81.38
68177;DHT22;56478;50.982;7.032;2022-12-26T10:57:34;12.02;80.12
68177;DHT22;56478;50.982;7.032;2022-12-26T11:00:00;12.11;79.52
68177;DHT22;56478;50.982;7.032;2022-12-26T11:02:29;12.21;80.33
68177;DHT22;56478;50.982;7.032;2022-12-26T11:07:37;12.32;81.12
68177;DHT22;56478;50.982;7.032;2022-12-26T11:10:12;12.43;79.81
68177;DHT22;56478;50.982;7.032;2022-12-26T11:13:03;12.56;80.67
68177;DHT22;56478;50.982;7.032;2022-12-26T11:15:39;12.46;79.41
68177;DHT22;56478;50.982;7.032;2022-12-26T11:18:44;12.53;78.80
68177;DHT22;56478;50.982;7.032;2022-12-26T11:21:18;12.61;77.94
68177;DHT22;56478;50.982;7.032;2022-12-26T11:23:45;12.68;79.68
68177;DHT22;56478;50.982;7.032;2022-12-26T11:26:26;12.67;78.01
68177;DHT22;56478;50.982;7.032;2022-12-26T11:29:17;12.60;78.01
68177;DHT22;56478;50.982;7.032;2022-12-26T11:31:56;12.61;78.65
68177;DHT22;56478;50.982;7.032;2022-12-26T11:34:43;12.53;77.69
68177;DHT22;56478;50.982;7.032;2022-12-26T11:37:29;12.61;77.71
68177;DHT22;56478;50.982;7.032;2022-12-26T11:39:56;12.63;77.55
68177;DHT22;56478;50.982;7.032;2022-12-26T11:42:24;12.65;77.52
68177;DHT22;56478;50.982;7.032;2022-12-26T11:44:51;12.87;75.12
68177;DHT22;56478;50.982;7.032;2022-12-26T11:47:20;12.81;74.83
68177;DHT22;56478;50.982;7.032;2022-12-26T11:50:07;12.84;75.78
68177;DHT22;56478;50.982;7.032;2022-12-26T11:53:02;12.80;75.41
68177;DHT22;56478;50.982;7.032;2022-12-26T11:55:37;12.71;76.79
68177;DHT22;56478;50.982;7.032;2022-12-26T11:58:19;12.80;76.67
68177;DHT22;56478;50.982;7.032;2022-12-26T12:03:23;13.20;74.89
68177;DHT22;56478;50.982;7.032;2022-12-26T12:14:40;12.88;75.53
68177;DHT22;56478;50.982;7.032;2022-12-26T12:17:33;12.63;75.18
68177;DHT22;56478;50.982;7.032;2022-12-26T12:20:13;12.78;74.29
68177;DHT22;56478;50.982;7.032;2022-12-26T12:25:46;12.43;76.14
68177;DHT22;56478;50.982;7.032;2022-12-26T12:28:36;12.33;74.90
68177;DHT22;56478;50.982;7.032;2022-12-26T12:33:54;12.22;76.32
68177;DHT22;56478;50.982;7.032;2022-12-26T12:45:27;12.21;76.61
68177;DHT22;56478;50.982;7.032;2022-12-26T12:54:00;12.05;77.42
68177;DHT22;56478;50.982;7.032;2022-12-26T12:59:26;12.02;78.17
68177;DHT22;56478;50.982;7.032;2022-12-26T13:01:57;12.11;78.51
68177;DHT22;56478;50.982;7.032;2022-12-26T13:04:28;12.12;77.54
68177;DHT22;56478;50.982;7.032;2022-12-26T13:07:01;12.12;77.83
68177;DHT22;56478;50.982;7.032;2022-12-26T13:09:41;12.11;76.92
68177;DHT22;56478;50.982;7.032;2022-12-26T13:12:14;12.05;76.84
68177;DHT22;56478;50.982;7.032;2022-12-26T13:14:48;12.06;77.35
68177;DHT22;56478;50.982;7.032;2022-12-26T13:17:53;12.22;77.19
68177;DHT22;56478;50.982;7.032;2022-12-26T13:23:02;12.11;77.04
68177;DHT22;56478;50.982;7.032;2022-12-26T13:26:03;12.08;76.64
68177;DHT22;56478;50.982;7.032;2022-12-26T13:28:35;12.05;78.03
68177;DHT22;56478;50.982;7.032;2022-12-26T13:31:02;12.12;77.85
68177;DHT22;56478;50.982;7.032;2022-12-26T13:33:28;12.09;78.66
68177;DHT22;56478;50.982;7.032;2022-12-26T13:35:59;12.08;78.84
68177;DHT22;56478;50.982;7.032;2022-12-26T13:41:20;11.88;80.87
68177;DHT22;56478;50.982;7.032;2022-12-26T13:49:30;11.46;84.07
68177;DHT22;56478;50.982;7.032;2022-12-26T13:57:47;11.29;84.63
68177;DHT22;56478;50.982;7.032;2022-12-26T14:00:21;11.19;84.45
68177;DHT22;56478;50.982;7.032;2022-12-26T14:11:16;11.02;85.38
68177;DHT22;56478;50.982;7.032;2022-12-26T14:16:49;11.05;85.48
68177;DHT22;56478;50.982;7.032;2022-12-26T14:22:28;10.91;84.82
68177;DHT22;56478;50.982;7.032;2022-12-26T14:25:00;10.73;84.76
68177;DHT22;56478;50.982;7.032;2022-12-26T14:33:27;10.63;83.58
68177;DHT22;56478;50.982;7.032;2022-12-26T14:36:34;10.39;83.48
68177;DHT22;56478;50.982;7.032;2022-12-26T14:39:42;10.42;84.41
68177;DHT22;56478;50.982;7.032;2022-12-26T14:42:14;10.35;83.58
68177;DHT22;56478;50.982;7.032;2022-12-26T14:45:00;10.32;83.66
68177;DHT22;56478;50.982;7.032;2022-12-26T15:04:44;10.26;81.96
68177;DHT22;56478;50.982;7.032;2022-12-26T15:32:39;10.06;82.02
68177;DHT22;56478;50.982;7.032;2022-12-26T15:40:23;10.05;79.31
68177;DHT22;56478;50.982;7.032;2022-12-26T15:46:09;9.77;78.30
68177;DHT22;56478;50.982;7.032;2022-12-26T15:49:01;9.73;77.85
68177;DHT22;56478;50.982;7.032;2022-12-26T16:00:08;9.66;78.48
68177;DHT22;56478;50.982;7.032;2022-12-26T16:02:47;9.69;77.26
68177;DHT22;56478;50.982;7.032;2022-12-26T16:10:36;9.47;77.95
68177;DHT22;56478;50.982;7.032;2022-12-26T16:15:51;9.53;78.50
68177;DHT22;56478;50.982;7.032;2022-12-26T16:18:24;9.54;78.65
68177;DHT22;56478;50.982;7.032;2022-12-26T16:20:51;9.57;78.86
68177;DHT22;56478;50.982;7.032;2022-12-26T16:23:38;9.62;78.13
68177;DHT22;56478;50.982;7.032;2022-12-26T16:26:04;9.57;80.82
68177;DHT22;56478;50.982;7.032;2022-12-26T16:28:34;9.54;78.33
68177;DHT22;56478;50.982;7.032;2022-12-26T16:31:01;9.52;77.72
68177;DHT22;56478;50.982;7.032;2022-12-26T16:33:31;9.52;78.18
68177;DHT22;56478;50.982;7.032;2022-12-26T16:35:58;9.54;77.70
68177;DHT22;56478;50.982;7.032;2022-12-26T16:38:28;9.43;76.49
68177;DHT22;56478;50.982;7.032;2022-12-26T16:40:54;9.50;75.73
68177;DHT22;56478;50.982;7.032;2022-12-26T16:43:26;9.40;77.75
68177;DHT22;56478;50.982;7.032;2022-12-26T16:45:57;9.34;78.03
68177;DHT22;56478;50.982;7.032;2022-12-26T16:48:27;9.26;77.73
68177;DHT22;56478;50.982;7.032;2022-12-26T16:51:02;9.32;79.94
68177;DHT22;56478;50.982;7.032;2022-12-26T16:58:37;9.00;76.33
68177;DHT22;56478;50.982;7.032;2022-12-26T17:01:06;8.98;77.08
68177;DHT22;56478;50.982;7.032;2022-12-26T17:06:11;8.94;76.61
68177;DHT22;56478;50.982;7.032;2022-12-26T17:08:42;8.96;76.85
68177;DHT22;56478;50.982;7.032;2022-12-26T17:11:09;8.96;77.16
68177;DHT22;56478;50.982;7.032;2022-12-26T17:13:35;8.88;77.04
68177;DHT22;56478;50.982;7.032;2022-12-26T17:16:05;8.92;77.23
68177;DHT22;56478;50.982;7.032;2022-12-26T17:18:36;8.91;76.20
68177;DHT22;56478;50.982;7.032;2022-12-26T17:21:18;8.85;75.61
68177;DHT22;56478;50.982;7.032;2022-12-26T17:23:45;8.85;75.82
68177;DHT22;56478;50.982;7.032;2022-12-26T17:26:29;8.80;74.52
68177;DHT22;56478;50.982;7.032;2022-12-26T17:28:55;8.60;75.74
68177;DHT22;56478;50.982;7.032;2022-12-26T17:31:29;8.67;75.81
68177;DHT22;56478;50.982;7.032;2022-12-26T17:33:56;8.57;75.10
68177;DHT22;56478;50.982;7.032;2022-12-26T17:36:25;8.50;74.71
68177;DHT22;56478;50.982;7.032;2022-12-26T17:38:51;8.44;75.78
68177;DHT22;56478;50.982;7.032;2022-12-26T17:41:17;8.28;75.52
68177;DHT22;56478;50.982;7.032;2022-12-26T17:43:44;8.18;75.54
68177;DHT22;56478;50.982;7.032;2022-12-26T17:46:13;8.18;75.52
68177;DHT22;56478;50.982;7.032;2022-12-26T17:48:40;8.20;76.07
68177;DHT22;56478;50.982;7.032;2022-12-26T17:51:10;8.12;75.44
68177;DHT22;56478;50.982;7.032;2022-12-26T17:53:39;8.18;73.83
68177;DHT22;56478;50.982;7.032;2022-12-26T17:56:08;8.03;74.89
68177;DHT22;56478;50.982;7.032;2022-12-26T17:58:34;8.10;74.64
68177;DHT22;56478;50.982;7.032;2022-12-26T18:01:00;7.97;72.57
68177;DHT22;56478;50.982;7.032;2022-12-26T18:03:26;7.80;73.62
68177;DHT22;56478;50.982;7.032;2022-12-26T18:05:53;7.86;73.87
68177;DHT22;56478;50.982;7.032;2022-12-26T18:08:31;7.77;72.73
68177;DHT22;56478;50.982;7.032;2022-12-26T18:10:58;7.63;73.10
68177;DHT22;56478;50.982;7.032;2022-12-26T18:13:24;7.58;71.89
68177;DHT22;56478;50.982;7.032;2022-12-26T18:15:51;7.61;73.23
68177;DHT22;56478;50.982;7.032;2022-12-26T18:21:05;7.52;73.57
68177;DHT22;56478;50.982;7.032;2022-12-26T18:23:31;7.56;73.51
68177;DHT22;56478;50.982;7.032;2022-12-26T18:26:02;7.54;72.84
68177;DHT22;56478;50.982;7.032;2022-12-26T18:28:28;7.42;73.35
68177;DHT22;56478;50.982;7.032;2022-12-26T18:30:54;7.35;72.95
68177;DHT22;56478;50.982;7.032;2022-12-26T18:33:21;7.28;74.61
68177;DHT22;56478;50.982;7.032;2022-12-26T18:35:47;7.20;73.47
68177;DHT22;56478;50.982;7.032;2022-12-26T18:38:14;7.06;74.20
68177;DHT22;56478;50.982;7.032;2022-12-26T18:40:43;6.92;73.97
68177;DHT22;56478;50.982;7.032;2022-12-26T18:43:09;6.95;74.84
68177;DHT22;56478;50.982;7.032;2022-12-26T18:45:36;6.85;74.36
68177;DHT22;56478;50.982;7.032;2022-12-26T18:48:02;6.71;74.76
68177;DHT22;56478;50.982;7.032;2022-12-26T18:50:29;6.64;75.29
68177;DHT22;56478;50.982;7.032;2022-12-26T18:52:56;6.61;75.34
68177;DHT22;56478;50.982;7.032;2022-12-26T18:55:23;6.64;74.90
68177;DHT22;56478;50.982;7.032;2022-12-26T18:57:50;6.55;76.38
68177;DHT22;56478;50.982;7.032;2022-12-26T19:00:16;6.46;76.25
68177;DHT22;56478;50.982;7.032;2022-12-26T19:02:43;6.41;76.08
68177;DHT22;56478;50.982;7.032;2022-12-26T19:05:15;6.45;78.16
68177;DHT22;56478;50.982;7.032;2022-12-26T19:07:41;6.49;80.47
68177;DHT22;56478;50.982;7.032;2022-12-26T19:10:08;6.44;80.33
68177;DHT22;56478;50.982;7.032;2022-12-26T19:12:34;6.38;80.23
68177;DHT22;56478;50.982;7.032;2022-12-26T19:14:59;6.35;81.35
68177;DHT22;56478;50.982;7.032;2022-12-26T19:17:25;6.33;81.19
68177;DHT22;56478;50.982;7.032;2022-12-26T19:19:50;6.26;80.19
68177;DHT22;56478;50.982;7.032;2022-12-26T19:22:16;6.26;81.11
68177;DHT22;56478;50.982;7.032;2022-12-26T19:24:43;6.18;80.67
68177;DHT22;56478;50.982;7.032;2022-12-26T19:27:09;6.14;79.63
68177;DHT22;56478;50.982;7.032;2022-12-26T19:29:35;6.11;80.88
68177;DHT22;56478;50.982;7.032;2022-12-26T19:32:01;6.11;80.83
68177;DHT22;56478;50.982;7.032;2022-12-26T19:34:26;6.06;80.34
68177;DHT22;56478;50.982;7.032;2022-12-26T19:36:54;6.09;80.83
68177;DHT22;56478;50.982;7.032;2022-12-26T19:39:19;6.05;79.95
68177;DHT22;56478;50.982;7.032;2022-12-26T19:41:45;6.06;80.78